sensor_id;sensor_type;location;lat;lon;timestamp;P1;durP1;ratioP1;P2;durP2;ratioP2
422;SDS011;198;48.752;9.180;2022-12-24T00:02:12;10.47;;;1.90;;
422;SDS011;198;48.752;9.180;2022-12-24T00:04:37;9.23;;;1.80;;
422;SDS011;198;48.752;9.180;2022-12-24T00:07:03;3.50;;;1.20;;
422;SDS011;198;48.752;9.180;2022-12-24T00:09:28;8.80;;;1.93;;
422;SDS011;198;48.752;9.180;2022-12-24T00:11:54;4.47;;;1.70;;
422;SDS011;198;48.752;9.180;2022-12-24T00:14:19;7.80;;;1.37;;
422;SDS011;198;48.752;9.180;2022-12-24T00:16:45;2.70;;;1.30;;
422;SDS011;198;48.752;9.180;2022-12-24T00:19:11;9.57;;;1.93;;
422;SDS011;198;48.752;9.180;2022-12-24T00:21:36;8.63;;;1.60;;
422;SDS011;198;48.752;9.180;2022-12-24T00:24:02;6.50;;;1.70;;
422;SDS011;198;48.752;9.180;2022-12-24T00:26:29;6.93;;;1.27;;
422;SDS011;198;48.752;9.180;2022-12-24T00:28:58;6.77;;;1.57;;
422;SDS011;198;48.752;9.180;2022-12-24T00:31:24;9.20;;;2.13;;
422;SDS011;198;48.752;9.180;2022-12-24T00:33:50;3.40;;;1.50;;
422;SDS011;198;48.752;9.180;2022-12-24T00:36:16;10.90;;;1.43;;
422;SDS011;198;48.752;9.180;2022-12-24T00:38:42;2.73;;;1.60;;
422;SDS011;198;48.752;9.180;2022-12-24T00:41:09;15.50;;;1.67;;
422;SDS011;198;48.752;9.180;2022-12-24T00:43:48;4.23;;;1.53;;
422;SDS011;198;48.752;9.180;2022-12-24T00:46:18;9.53;;;1.83;;
422;SDS011;198;48.752;9.180;2022-12-24T00:48:44;5.43;;;1.33;;
422;SDS011;198;48.752;9.180;2022-12-24T00:51:09;2.27;;;1.27;;
422;SDS011;198;48.752;9.180;2022-12-24T00:53:35;7.17;;;1.60;;
422;SDS011;198;48.752;9.180;2022-12-24T00:56:00;6.30;;;2.60;;
422;SDS011;198;48.752;9.180;2022-12-24T00:58:26;4.40;;;1.13;;
422;SDS011;198;48.752;9.180;2022-12-24T01:00:51;2.50;;;1.53;;
422;SDS011;198;48.752;9.180;2022-12-24T01:03:17;7.73;;;1.80;;
422;SDS011;198;48.752;9.180;2022-12-24T01:05:42;10.30;;;1.93;;
422;SDS011;198;48.752;9.180;2022-12-24T01:08:08;1.60;;;1.10;;
422;SDS011;198;48.752;9.180;2022-12-24T01:10:33;2.73;;;1.40;;
422;SDS011;198;48.752;9.180;2022-12-24T01:13:02;4.07;;;2.00;;
422;SDS011;198;48.752;9.180;2022-12-24T01:15:28;7.40;;;1.77;;
422;SDS011;198;48.752;9.180;2022-12-24T01:17:54;3.87;;;1.50;;
422;SDS011;198;48.752;9.180;2022-12-24T01:20:19;15.43;;;1.67;;
422;SDS011;198;48.752;9.180;2022-12-24T01:22:45;14.00;;;1.60;;
422;SDS011;198;48.752;9.180;2022-12-24T01:25:12;13.23;;;1.83;;
422;SDS011;198;48.752;9.180;2022-12-24T01:27:38;3.40;;;1.60;;
422;SDS011;198;48.752;9.180;2022-12-24T01:30:05;16.87;;;2.70;;
422;SDS011;198;48.752;9.180;2022-12-24T01:32:31;9.43;;;1.37;;
422;SDS011;198;48.752;9.180;2022-12-24T01:34:57;8.83;;;1.67;;
422;SDS011;198;48.752;9.180;2022-12-24T01:37:23;11.67;;;1.80;;
422;SDS011;198;48.752;9.180;2022-12-24T01:39:49;10.40;;;2.00;;
422;SDS011;198;48.752;9.180;2022-12-24T01:42:22;6.83;;;2.23;;
422;SDS011;198;48.752;9.180;2022-12-24T01:48:07;6.23;;;1.53;;
422;SDS011;198;48.752;9.180;2022-12-24T01:50:42;8.97;;;2.00;;
422;SDS011;198;48.752;9.180;2022-12-24T01:53:08;6.67;;;1.60;;
422;SDS011;198;48.752;9.180;2022-12-24T01:55:35;5.27;;;1.27;;
422;SDS011;198;48.752;9.180;2022-12-24T01:58:00;1.20;;;1.10;;
422;SDS011;198;48.752;9.180;2022-12-24T02:00:28;11.10;;;1.40;;
422;SDS011;198;48.752;9.180;2022-12-24T02:02:53;2.50;;;1.30;;
422;SDS011;198;48.752;9.180;2022-12-24T02:05:21;9.77;;;2.47;;
422;SDS011;198;48.752;9.180;2022-12-24T02:07:52;12.67;;;2.10;;
422;SDS011;198;48.752;9.180;2022-12-24T02:10:18;9.87;;;1.50;;
422;SDS011;198;48.752;9.180;2022-12-24T02:12:44;5.57;;;2.00;;
422;SDS011;198;48.752;9.180;2022-12-24T02:15:11;8.43;;;2.00;;
422;SDS011;198;48.752;9.180;2022-12-24T02:17:42;9.07;;;2.73;;
422;SDS011;198;48.752;9.180;2022-12-24T02:31:51;8.10;;;2.03;;
422;SDS011;198;48.752;9.180;2022-12-24T02:37:18;31.50;;;3.00;;
422;SDS011;198;48.752;9.180;2022-12-24T02:42:16;6.43;;;1.60;;
422;SDS011;198;48.752;9.180;2022-12-24T02:44:47;8.50;;;1.90;;
422;SDS011;198;48.752;9.180;2022-12-24T02:47:18;20.60;;;2.03;;
422;SDS011;198;48.752;9.180;2022-12-24T02:49:48;11.70;;;2.30;;
422;SDS011;198;48.752;9.180;2022-12-24T02:55:04;7.20;;;2.23;;
422;SDS011;198;48.752;9.180;2022-12-24T02:57:58;20.40;;;2.60;;
422;SDS011;198;48.752;9.180;2022-12-24T03:00:44;15.70;;;2.17;;
422;SDS011;198;48.752;9.180;2022-12-24T03:03:48;5.87;;;1.57;;
422;SDS011;198;48.752;9.180;2022-12-24T03:09:05;9.50;;;2.10;;
422;SDS011;198;48.752;9.180;2022-12-24T03:11:39;8.90;;;1.97;;
422;SDS011;198;48.752;9.180;2022-12-24T03:14:12;17.60;;;1.73;;
422;SDS011;198;48.752;9.180;2022-12-24T03:16:40;4.30;;;1.47;;
422;SDS011;198;48.752;9.180;2022-12-24T03:19:06;16.03;;;2.47;;
422;SDS011;198;48.752;9.180;2022-12-24T03:21:33;5.70;;;1.80;;
422;SDS011;198;48.752;9.180;2022-12-24T03:24:03;8.70;;;2.17;;
422;SDS011;198;48.752;9.180;2022-12-24T03:26:29;11.57;;;2.03;;
422;SDS011;198;48.752;9.180;2022-12-24T03:28:56;7.13;;;1.80;;
422;SDS011;198;48.752;9.180;2022-12-24T03:31:22;4.00;;;2.00;;
422;SDS011;198;48.752;9.180;2022-12-24T03:33:48;8.77;;;1.87;;
422;SDS011;198;48.752;9.180;2022-12-24T03:36:14;11.37;;;2.27;;
422;SDS011;198;48.752;9.180;2022-12-24T03:38:39;6.57;;;1.83;;
422;SDS011;198;48.752;9.180;2022-12-24T03:41:05;11.20;;;2.80;;
422;SDS011;198;48.752;9.180;2022-12-24T03:43:31;11.00;;;2.17;;
422;SDS011;198;48.752;9.180;2022-12-24T03:45:57;10.23;;;1.87;;
422;SDS011;198;48.752;9.180;2022-12-24T03:48:22;13.80;;;2.13;;
422;SDS011;198;48.752;9.180;2022-12-24T03:50:48;12.93;;;2.00;;
422;SDS011;198;48.752;9.180;2022-12-24T03:53:13;3.30;;;1.47;;
422;SDS011;198;48.752;9.180;2022-12-24T03:55:39;10.50;;;2.00;;
422;SDS011;198;48.752;9.180;2022-12-24T03:58:04;20.30;;;2.77;;
422;SDS011;198;48.752;9.180;2022-12-24T04:00:30;6.13;;;2.07;;
422;SDS011;198;48.752;9.180;2022-12-24T04:02:56;11.70;;;1.50;;
422;SDS011;198;48.752;9.180;2022-12-24T04:05:21;26.43;;;2.50;;
422;SDS011;198;48.752;9.180;2022-12-24T04:07:47;12.23;;;2.07;;
422;SDS011;198;48.752;9.180;2022-12-24T04:10:13;6.17;;;1.60;;
422;SDS011;198;48.752;9.180;2022-12-24T04:12:39;8.67;;;2.13;;
422;SDS011;198;48.752;9.180;2022-12-24T04:15:05;20.73;;;2.00;;
422;SDS011;198;48.752;9.180;2022-12-24T04:17:31;13.10;;;3.23;;
422;SDS011;198;48.752;9.180;2022-12-24T04:19:57;11.97;;;2.00;;
422;SDS011;198;48.752;9.180;2022-12-24T04:22:23;9.63;;;1.60;;
422;SDS011;198;48.752;9.180;2022-12-24T04:24:48;6.27;;;2.03;;
422;SDS011;198;48.752;9.180;2022-12-24T04:27:14;11.83;;;2.27;;
422;SDS011;198;48.752;9.180;2022-12-24T04:29:39;7.50;;;2.17;;
422;SDS011;198;48.752;9.180;2022-12-24T04:32:05;12.23;;;1.57;;
422;SDS011;198;48.752;9.180;2022-12-24T04:34:30;13.33;;;2.00;;
422;SDS011;198;48.752;9.180;2022-12-24T04:36:56;8.47;;;2.07;;
422;SDS011;198;48.752;9.180;2022-12-24T04:39:21;17.13;;;2.87;;
422;SDS011;198;48.752;9.180;2022-12-24T04:41:47;28.00;;;3.33;;
422;SDS011;198;48.752;9.180;2022-12-24T04:44:12;7.97;;;1.93;;
422;SDS011;198;48.752;9.180;2022-12-24T04:46:38;16.53;;;2.17;;
422;SDS011;198;48.752;9.180;2022-12-24T04:49:05;11.17;;;2.10;;
422;SDS011;198;48.752;9.180;2022-12-24T04:51:30;3.60;;;1.80;;
422;SDS011;198;48.752;9.180;2022-12-24T04:53:56;11.03;;;2.20;;
422;SDS011;198;48.752;9.180;2022-12-24T04:56:26;3.17;;;2.00;;
422;SDS011;198;48.752;9.180;2022-12-24T04:58:53;11.67;;;2.07;;
422;SDS011;198;48.752;9.180;2022-12-24T05:01:20;4.47;;;1.97;;
422;SDS011;198;48.752;9.180;2022-12-24T05:03:51;16.87;;;2.60;;
422;SDS011;198;48.752;9.180;2022-12-24T05:06:18;6.73;;;2.20;;
422;SDS011;198;48.752;9.180;2022-12-24T05:08:45;3.67;;;2.60;;
422;SDS011;198;48.752;9.180;2022-12-24T05:11:11;12.27;;;1.90;;
422;SDS011;198;48.752;9.180;2022-12-24T05:13:39;1.50;;;0.90;;
422;SDS011;198;48.752;9.180;2022-12-24T05:16:06;9.70;;;1.90;;
422;SDS011;198;48.752;9.180;2022-12-24T05:18:32;4.27;;;2.33;;
422;SDS011;198;48.752;9.180;2022-12-24T05:20:57;17.07;;;2.70;;
422;SDS011;198;48.752;9.180;2022-12-24T05:23:23;10.00;;;1.80;;
422;SDS011;198;48.752;9.180;2022-12-24T05:26:22;7.73;;;1.60;;
422;SDS011;198;48.752;9.180;2022-12-24T05:28:55;5.70;;;1.70;;
422;SDS011;198;48.752;9.180;2022-12-24T05:31:22;9.03;;;2.00;;
422;SDS011;198;48.752;9.180;2022-12-24T05:33:49;11.27;;;2.03;;
422;SDS011;198;48.752;9.180;2022-12-24T05:36:15;21.27;;;2.60;;
422;SDS011;198;48.752;9.180;2022-12-24T05:38:41;7.43;;;2.20;;
422;SDS011;198;48.752;9.180;2022-12-24T05:41:07;9.60;;;2.60;;
422;SDS011;198;48.752;9.180;2022-12-24T05:43:33;7.93;;;2.50;;
422;SDS011;198;48.752;9.180;2022-12-24T05:46:00;7.47;;;2.30;;
422;SDS011;198;48.752;9.180;2022-12-24T05:48:27;17.77;;;2.70;;
422;SDS011;198;48.752;9.180;2022-12-24T05:50:53;9.60;;;1.77;;
422;SDS011;198;48.752;9.180;2022-12-24T05:53:19;8.57;;;1.87;;
422;SDS011;198;48.752;9.180;2022-12-24T05:55:45;8.90;;;2.20;;
422;SDS011;198;48.752;9.180;2022-12-24T05:58:11;8.50;;;1.60;;
422;SDS011;198;48.752;9.180;2022-12-24T06:00:37;18.17;;;3.10;;
422;SDS011;198;48.752;9.180;2022-12-24T06:03:02;12.50;;;1.83;;
422;SDS011;198;48.752;9.180;2022-12-24T06:05:28;7.27;;;2.40;;
422;SDS011;198;48.752;9.180;2022-12-24T06:07:53;8.73;;;3.20;;
422;SDS011;198;48.752;9.180;2022-12-24T06:10:19;13.43;;;1.97;;
422;SDS011;198;48.752;9.180;2022-12-24T06:12:44;10.40;;;2.07;;
422;SDS011;198;48.752;9.180;2022-12-24T06:15:10;19.70;;;2.23;;
422;SDS011;198;48.752;9.180;2022-12-24T06:17:35;10.20;;;1.87;;
422;SDS011;198;48.752;9.180;2022-12-24T06:20:01;2.80;;;1.40;;
422;SDS011;198;48.752;9.180;2022-12-24T06:22:27;2.40;;;1.73;;
422;SDS011;198;48.752;9.180;2022-12-24T06:24:53;7.47;;;1.70;;
422;SDS011;198;48.752;9.180;2022-12-24T06:27:18;13.43;;;1.90;;
422;SDS011;198;48.752;9.180;2022-12-24T06:29:44;13.73;;;2.20;;
422;SDS011;198;48.752;9.180;2022-12-24T06:32:09;4.97;;;2.23;;
422;SDS011;198;48.752;9.180;2022-12-24T06:34:35;5.17;;;1.47;;
422;SDS011;198;48.752;9.180;2022-12-24T06:37:00;5.97;;;1.80;;
422;SDS011;198;48.752;9.180;2022-12-24T06:39:26;10.50;;;2.20;;
422;SDS011;198;48.752;9.180;2022-12-24T06:41:52;3.07;;;1.20;;
422;SDS011;198;48.752;9.180;2022-12-24T06:44:17;14.77;;;3.37;;
422;SDS011;198;48.752;9.180;2022-12-24T06:46:43;2.00;;;1.23;;
422;SDS011;198;48.752;9.180;2022-12-24T06:49:08;10.07;;;2.13;;
422;SDS011;198;48.752;9.180;2022-12-24T06:51:34;3.63;;;1.77;;
422;SDS011;198;48.752;9.180;2022-12-24T06:53:59;16.20;;;3.13;;
422;SDS011;198;48.752;9.180;2022-12-24T06:56:25;8.73;;;2.10;;
422;SDS011;198;48.752;9.180;2022-12-24T06:58:50;10.47;;;2.37;;
422;SDS011;198;48.752;9.180;2022-12-24T07:01:16;5.60;;;2.40;;
422;SDS011;198;48.752;9.180;2022-12-24T07:03:43;7.37;;;2.50;;
422;SDS011;198;48.752;9.180;2022-12-24T07:06:19;10.73;;;2.40;;
422;SDS011;198;48.752;9.180;2022-12-24T07:08:48;14.27;;;1.80;;
422;SDS011;198;48.752;9.180;2022-12-24T07:11:14;15.53;;;1.93;;
422;SDS011;198;48.752;9.180;2022-12-24T07:13:40;9.00;;;2.10;;
422;SDS011;198;48.752;9.180;2022-12-24T07:16:05;4.93;;;1.57;;
422;SDS011;198;48.752;9.180;2022-12-24T07:18:31;3.77;;;1.40;;
422;SDS011;198;48.752;9.180;2022-12-24T07:20:57;5.43;;;1.67;;
422;SDS011;198;48.752;9.180;2022-12-24T07:23:22;19.53;;;2.20;;
422;SDS011;198;48.752;9.180;2022-12-24T07:25:48;5.57;;;1.87;;
422;SDS011;198;48.752;9.180;2022-12-24T07:28:14;6.80;;;2.13;;
422;SDS011;198;48.752;9.180;2022-12-24T07:30:39;6.20;;;2.10;;
422;SDS011;198;48.752;9.180;2022-12-24T07:33:05;6.77;;;2.40;;
422;SDS011;198;48.752;9.180;2022-12-24T07:35:30;10.70;;;1.80;;
422;SDS011;198;48.752;9.180;2022-12-24T07:37:56;17.00;;;2.70;;
422;SDS011;198;48.752;9.180;2022-12-24T07:40:21;14.27;;;2.00;;
422;SDS011;198;48.752;9.180;2022-12-24T07:42:47;8.60;;;2.50;;
422;SDS011;198;48.752;9.180;2022-12-24T07:45:12;10.43;;;1.93;;
422;SDS011;198;48.752;9.180;2022-12-24T07:47:38;6.10;;;2.20;;
422;SDS011;198;48.752;9.180;2022-12-24T07:50:04;6.60;;;2.50;;
422;SDS011;198;48.752;9.180;2022-12-24T07:52:30;7.10;;;2.20;;
422;SDS011;198;48.752;9.180;2022-12-24T07:54:56;12.53;;;2.40;;
422;SDS011;198;48.752;9.180;2022-12-24T07:57:22;8.77;;;2.00;;
422;SDS011;198;48.752;9.180;2022-12-24T07:59:47;3.43;;;1.90;;
422;SDS011;198;48.752;9.180;2022-12-24T08:02:13;11.83;;;2.30;;
422;SDS011;198;48.752;9.180;2022-12-24T08:04:38;7.17;;;1.90;;
422;SDS011;198;48.752;9.180;2022-12-24T08:07:04;11.43;;;2.50;;
422;SDS011;198;48.752;9.180;2022-12-24T08:09:31;11.20;;;1.90;;
422;SDS011;198;48.752;9.180;2022-12-24T08:11:57;8.73;;;2.23;;
422;SDS011;198;48.752;9.180;2022-12-24T08:14:23;8.30;;;2.57;;
422;SDS011;198;48.752;9.180;2022-12-24T08:16:48;11.70;;;2.23;;
422;SDS011;198;48.752;9.180;2022-12-24T08:19:14;6.20;;;1.80;;
422;SDS011;198;48.752;9.180;2022-12-24T08:21:39;13.90;;;1.87;;
422;SDS011;198;48.752;9.180;2022-12-24T08:24:05;8.10;;;2.00;;
422;SDS011;198;48.752;9.180;2022-12-24T08:26:30;10.57;;;2.20;;
422;SDS011;198;48.752;9.180;2022-12-24T08:28:56;14.90;;;2.53;;
422;SDS011;198;48.752;9.180;2022-12-24T08:31:22;17.13;;;2.90;;
422;SDS011;198;48.752;9.180;2022-12-24T08:33:47;10.53;;;1.80;;
422;SDS011;198;48.752;9.180;2022-12-24T08:36:13;6.30;;;2.10;;
422;SDS011;198;48.752;9.180;2022-12-24T08:38:38;2.17;;;1.50;;
422;SDS011;198;48.752;9.180;2022-12-24T08:41:04;10.23;;;1.77;;
422;SDS011;198;48.752;9.180;2022-12-24T08:43:30;8.57;;;2.60;;
422;SDS011;198;48.752;9.180;2022-12-24T08:46:00;23.40;;;2.80;;
422;SDS011;198;48.752;9.180;2022-12-24T08:48:27;4.60;;;1.77;;
422;SDS011;198;48.752;9.180;2022-12-24T08:50:53;6.00;;;1.70;;
422;SDS011;198;48.752;9.180;2022-12-24T08:53:18;6.60;;;1.90;;
422;SDS011;198;48.752;9.180;2022-12-24T08:55:44;6.27;;;1.90;;
422;SDS011;198;48.752;9.180;2022-12-24T08:58:09;9.23;;;2.57;;
422;SDS011;198;48.752;9.180;2022-12-24T09:00:35;16.67;;;2.37;;
422;SDS011;198;48.752;9.180;2022-12-24T09:03:01;10.80;;;2.47;;
422;SDS011;198;48.752;9.180;2022-12-24T09:05:26;11.17;;;2.23;;
422;SDS011;198;48.752;9.180;2022-12-24T09:07:53;14.80;;;2.50;;
422;SDS011;198;48.752;9.180;2022-12-24T09:10:18;4.80;;;2.50;;
422;SDS011;198;48.752;9.180;2022-12-24T09:12:44;6.10;;;1.77;;
422;SDS011;198;48.752;9.180;2022-12-24T09:15:10;13.77;;;2.97;;
422;SDS011;198;48.752;9.180;2022-12-24T09:17:35;6.93;;;2.10;;
422;SDS011;198;48.752;9.180;2022-12-24T09:20:01;12.07;;;2.60;;
422;SDS011;198;48.752;9.180;2022-12-24T09:22:28;14.27;;;2.20;;
422;SDS011;198;48.752;9.180;2022-12-24T09:24:53;22.33;;;3.00;;
422;SDS011;198;48.752;9.180;2022-12-24T09:27:19;3.60;;;2.10;;
422;SDS011;198;48.752;9.180;2022-12-24T09:29:45;7.30;;;2.03;;
422;SDS011;198;48.752;9.180;2022-12-24T09:32:10;10.70;;;2.10;;
422;SDS011;198;48.752;9.180;2022-12-24T09:34:36;15.97;;;2.73;;
422;SDS011;198;48.752;9.180;2022-12-24T09:37:02;9.77;;;2.60;;
422;SDS011;198;48.752;9.180;2022-12-24T09:39:27;10.00;;;3.47;;
422;SDS011;198;48.752;9.180;2022-12-24T09:47:46;18.10;;;3.20;;
422;SDS011;198;48.752;9.180;2022-12-24T09:50:58;8.20;;;2.23;;
422;SDS011;198;48.752;9.180;2022-12-24T09:53:12;8.13;;;2.60;;
422;SDS011;198;48.752;9.180;2022-12-24T09:55:43;18.30;;;2.30;;
422;SDS011;198;48.752;9.180;2022-12-24T09:58:15;11.47;;;2.10;;
422;SDS011;198;48.752;9.180;2022-12-24T10:00:46;13.63;;;1.80;;
422;SDS011;198;48.752;9.180;2022-12-24T10:03:13;8.23;;;2.30;;
422;SDS011;198;48.752;9.180;2022-12-24T10:05:44;6.73;;;2.27;;
422;SDS011;198;48.752;9.180;2022-12-24T10:11:39;10.27;;;2.00;;
422;SDS011;198;48.752;9.180;2022-12-24T10:13:49;12.70;;;2.50;;
422;SDS011;198;48.752;9.180;2022-12-24T10:16:37;30.33;;;3.50;;
422;SDS011;198;48.752;9.180;2022-12-24T10:22:07;20.87;;;2.57;;
422;SDS011;198;48.752;9.180;2022-12-24T10:24:56;10.03;;;2.37;;
422;SDS011;198;48.752;9.180;2022-12-24T10:27:45;10.93;;;2.50;;
422;SDS011;198;48.752;9.180;2022-12-24T10:30:12;10.33;;;2.13;;
422;SDS011;198;48.752;9.180;2022-12-24T10:32:39;14.73;;;2.30;;
422;SDS011;198;48.752;9.180;2022-12-24T10:37:44;13.73;;;2.37;;
422;SDS011;198;48.752;9.180;2022-12-24T10:42:59;10.20;;;2.40;;
422;SDS011;198;48.752;9.180;2022-12-24T10:45:26;3.93;;;1.97;;
422;SDS011;198;48.752;9.180;2022-12-24T10:48:00;15.23;;;2.93;;
422;SDS011;198;48.752;9.180;2022-12-24T10:50:33;5.87;;;2.43;;
422;SDS011;198;48.752;9.180;2022-12-24T10:53:06;13.93;;;2.37;;
422;SDS011;198;48.752;9.180;2022-12-24T10:55:48;15.30;;;2.70;;
422;SDS011;198;48.752;9.180;2022-12-24T10:58:16;12.83;;;2.53;;
422;SDS011;198;48.752;9.180;2022-12-24T11:00:50;7.80;;;2.33;;
422;SDS011;198;48.752;9.180;2022-12-24T11:05:42;6.40;;;2.37;;
422;SDS011;198;48.752;9.180;2022-12-24T11:10:36;12.47;;;2.50;;
422;SDS011;198;48.752;9.180;2022-12-24T11:13:14;12.33;;;2.40;;
422;SDS011;198;48.752;9.180;2022-12-24T11:16:07;10.53;;;2.57;;
422;SDS011;198;48.752;9.180;2022-12-24T11:18:48;10.00;;;2.33;;
422;SDS011;198;48.752;9.180;2022-12-24T11:21:18;10.90;;;2.20;;
422;SDS011;198;48.752;9.180;2022-12-24T11:24:07;25.03;;;2.60;;
422;SDS011;198;48.752;9.180;2022-12-24T11:26:37;14.07;;;2.10;;
422;SDS011;198;48.752;9.180;2022-12-24T11:29:04;6.70;;;2.17;;
422;SDS011;198;48.752;9.180;2022-12-24T11:31:37;8.23;;;2.00;;
422;SDS011;198;48.752;9.180;2022-12-24T11:37:17;5.10;;;1.57;;
422;SDS011;198;48.752;9.180;2022-12-24T11:39:49;15.50;;;2.23;;
422;SDS011;198;48.752;9.180;2022-12-24T11:42:22;20.90;;;2.93;;
422;SDS011;198;48.752;9.180;2022-12-24T11:45:00;15.97;;;2.63;;
422;SDS011;198;48.752;9.180;2022-12-24T11:47:38;10.90;;;2.50;;
422;SDS011;198;48.752;9.180;2022-12-24T11:55:43;7.30;;;2.40;;
422;SDS011;198;48.752;9.180;2022-12-24T12:06:48;24.00;;;3.00;;
422;SDS011;198;48.752;9.180;2022-12-24T12:09:26;14.93;;;2.20;;
422;SDS011;198;48.752;9.180;2022-12-24T12:12:05;10.43;;;3.00;;
422;SDS011;198;48.752;9.180;2022-12-24T12:14:37;10.63;;;2.93;;
422;SDS011;198;48.752;9.180;2022-12-24T12:19:50;14.30;;;2.40;;
422;SDS011;198;48.752;9.180;2022-12-24T12:22:38;32.13;;;2.73;;
422;SDS011;198;48.752;9.180;2022-12-24T12:25:17;5.60;;;1.80;;
422;SDS011;198;48.752;9.180;2022-12-24T12:27:50;17.47;;;2.73;;
422;SDS011;198;48.752;9.180;2022-12-24T12:30:19;8.87;;;2.60;;
422;SDS011;198;48.752;9.180;2022-12-24T12:32:49;14.17;;;2.80;;
422;SDS011;198;48.752;9.180;2022-12-24T12:35:25;9.87;;;1.73;;
422;SDS011;198;48.752;9.180;2022-12-24T12:38:04;8.00;;;2.20;;
422;SDS011;198;48.752;9.180;2022-12-24T12:40:58;12.03;;;2.20;;
422;SDS011;198;48.752;9.180;2022-12-24T12:43:53;16.83;;;2.40;;
422;SDS011;198;48.752;9.180;2022-12-24T12:46:45;9.47;;;2.53;;
422;SDS011;198;48.752;9.180;2022-12-24T12:51:58;8.70;;;2.00;;
422;SDS011;198;48.752;9.180;2022-12-24T12:57:20;6.10;;;2.50;;
422;SDS011;198;48.752;9.180;2022-12-24T12:59:51;10.83;;;1.93;;
422;SDS011;198;48.752;9.180;2022-12-24T13:02:29;7.30;;;2.70;;
422;SDS011;198;48.752;9.180;2022-12-24T13:08:15;9.00;;;1.87;;
422;SDS011;198;48.752;9.180;2022-12-24T13:11:07;14.10;;;3.70;;
422;SDS011;198;48.752;9.180;2022-12-24T13:13:41;7.47;;;1.97;;
422;SDS011;198;48.752;9.180;2022-12-24T13:22:00;7.90;;;2.13;;
422;SDS011;198;48.752;9.180;2022-12-24T13:24:26;22.63;;;4.93;;
422;SDS011;198;48.752;9.180;2022-12-24T13:27:05;13.47;;;3.67;;
422;SDS011;198;48.752;9.180;2022-12-24T13:29:42;23.67;;;3.40;;
422;SDS011;198;48.752;9.180;2022-12-24T13:34:46;16.70;;;3.10;;
422;SDS011;198;48.752;9.180;2022-12-24T13:47:57;10.30;;;1.90;;
422;SDS011;198;48.752;9.180;2022-12-24T13:58:39;31.90;;;3.47;;
422;SDS011;198;48.752;9.180;2022-12-24T14:01:09;5.90;;;1.73;;
422;SDS011;198;48.752;9.180;2022-12-24T14:03:46;5.70;;;2.50;;
422;SDS011;198;48.752;9.180;2022-12-24T14:06:22;4.90;;;1.70;;
422;SDS011;198;48.752;9.180;2022-12-24T14:08:49;5.70;;;1.90;;
422;SDS011;198;48.752;9.180;2022-12-24T14:11:19;13.03;;;2.10;;
422;SDS011;198;48.752;9.180;2022-12-24T14:16:16;7.50;;;2.37;;
422;SDS011;198;48.752;9.180;2022-12-24T14:18:47;16.07;;;2.47;;
422;SDS011;198;48.752;9.180;2022-12-24T14:21:24;13.93;;;2.07;;
422;SDS011;198;48.752;9.180;2022-12-24T14:26:27;11.83;;;2.53;;
422;SDS011;198;48.752;9.180;2022-12-24T14:28:57;18.73;;;2.37;;
422;SDS011;198;48.752;9.180;2022-12-24T14:31:27;12.07;;;2.97;;
422;SDS011;198;48.752;9.180;2022-12-24T14:34:04;8.00;;;2.40;;
422;SDS011;198;48.752;9.180;2022-12-24T14:36:36;12.97;;;2.73;;
422;SDS011;198;48.752;9.180;2022-12-24T14:39:03;23.40;;;3.13;;
422;SDS011;198;48.752;9.180;2022-12-24T14:41:38;12.10;;;1.97;;
422;SDS011;198;48.752;9.180;2022-12-24T14:44:39;13.17;;;3.40;;
422;SDS011;198;48.752;9.180;2022-12-24T14:47:23;12.87;;;2.73;;
422;SDS011;198;48.752;9.180;2022-12-24T14:50:26;18.93;;;2.53;;
422;SDS011;198;48.752;9.180;2022-12-24T14:53:05;7.37;;;1.83;;
422;SDS011;198;48.752;9.180;2022-12-24T14:55:45;5.90;;;2.07;;
422;SDS011;198;48.752;9.180;2022-12-24T14:58:17;12.30;;;1.90;;
422;SDS011;198;48.752;9.180;2022-12-24T15:00:48;9.20;;;2.93;;
422;SDS011;198;48.752;9.180;2022-12-24T15:03:16;7.87;;;1.67;;
422;SDS011;198;48.752;9.180;2022-12-24T15:05:43;9.00;;;2.33;;
422;SDS011;198;48.752;9.180;2022-12-24T15:08:21;15.23;;;3.53;;
422;SDS011;198;48.752;9.180;2022-12-24T15:10:52;5.60;;;2.30;;
422;SDS011;198;48.752;9.180;2022-12-24T15:15:47;10.13;;;2.30;;
422;SDS011;198;48.752;9.180;2022-12-24T15:18:14;9.63;;;2.50;;
422;SDS011;198;48.752;9.180;2022-12-24T15:20:44;12.70;;;2.63;;
422;SDS011;198;48.752;9.180;2022-12-24T15:23:26;12.47;;;2.10;;
422;SDS011;198;48.752;9.180;2022-12-24T15:28:45;18.27;;;2.13;;
422;SDS011;198;48.752;9.180;2022-12-24T15:33:43;9.50;;;2.30;;
422;SDS011;198;48.752;9.180;2022-12-24T15:36:10;12.73;;;3.40;;
422;SDS011;198;48.752;9.180;2022-12-24T15:38:44;18.57;;;3.07;;
422;SDS011;198;48.752;9.180;2022-12-24T15:41:18;11.70;;;3.40;;
422;SDS011;198;48.752;9.180;2022-12-24T15:43:49;7.53;;;2.43;;
422;SDS011;198;48.752;9.180;2022-12-24T15:46:20;14.23;;;2.80;;
422;SDS011;198;48.752;9.180;2022-12-24T15:48:47;9.00;;;2.70;;
422;SDS011;198;48.752;9.180;2022-12-24T15:51:19;8.80;;;2.60;;
422;SDS011;198;48.752;9.180;2022-12-24T15:53:56;15.93;;;3.53;;
422;SDS011;198;48.752;9.180;2022-12-24T15:56:29;12.60;;;3.53;;
422;SDS011;198;48.752;9.180;2022-12-24T16:01:44;18.60;;;3.73;;
422;SDS011;198;48.752;9.180;2022-12-24T16:04:15;16.10;;;4.13;;
422;SDS011;198;48.752;9.180;2022-12-24T16:11:59;13.27;;;3.17;;
422;SDS011;198;48.752;9.180;2022-12-24T16:14:25;13.73;;;3.10;;
422;SDS011;198;48.752;9.180;2022-12-24T16:16:51;13.73;;;4.37;;
422;SDS011;198;48.752;9.180;2022-12-24T16:19:25;12.13;;;3.80;;
422;SDS011;198;48.752;9.180;2022-12-24T16:21:54;9.60;;;4.43;;
422;SDS011;198;48.752;9.180;2022-12-24T16:24:45;15.03;;;4.60;;
422;SDS011;198;48.752;9.180;2022-12-24T16:27:11;12.00;;;3.90;;
422;SDS011;198;48.752;9.180;2022-12-24T16:29:37;12.90;;;3.47;;
422;SDS011;198;48.752;9.180;2022-12-24T16:32:03;18.87;;;5.03;;
422;SDS011;198;48.752;9.180;2022-12-24T16:34:29;19.33;;;5.50;;
422;SDS011;198;48.752;9.180;2022-12-24T16:36:56;28.33;;;6.70;;
422;SDS011;198;48.752;9.180;2022-12-24T16:39:28;14.43;;;5.27;;
422;SDS011;198;48.752;9.180;2022-12-24T16:41:57;17.87;;;5.80;;
422;SDS011;198;48.752;9.180;2022-12-24T16:44:43;17.10;;;4.00;;
422;SDS011;198;48.752;9.180;2022-12-24T16:47:17;7.20;;;3.30;;
422;SDS011;198;48.752;9.180;2022-12-24T16:49:46;18.47;;;3.47;;
422;SDS011;198;48.752;9.180;2022-12-24T16:52:16;11.00;;;3.10;;
422;SDS011;198;48.752;9.180;2022-12-24T16:54:45;9.33;;;3.03;;
422;SDS011;198;48.752;9.180;2022-12-24T16:57:10;15.23;;;2.97;;
422;SDS011;198;48.752;9.180;2022-12-24T16:59:36;17.83;;;2.60;;
422;SDS011;198;48.752;9.180;2022-12-24T17:02:02;7.13;;;3.00;;
422;SDS011;198;48.752;9.180;2022-12-24T17:04:29;7.87;;;4.10;;
422;SDS011;198;48.752;9.180;2022-12-24T17:06:58;11.10;;;3.50;;
422;SDS011;198;48.752;9.180;2022-12-24T17:09:23;11.10;;;3.60;;
422;SDS011;198;48.752;9.180;2022-12-24T17:11:49;10.57;;;3.73;;
422;SDS011;198;48.752;9.180;2022-12-24T17:14:14;6.27;;;2.90;;
422;SDS011;198;48.752;9.180;2022-12-24T17:16:40;14.17;;;3.77;;
422;SDS011;198;48.752;9.180;2022-12-24T17:19:06;8.17;;;3.17;;
422;SDS011;198;48.752;9.180;2022-12-24T17:21:32;16.13;;;2.93;;
422;SDS011;198;48.752;9.180;2022-12-24T17:23:58;23.50;;;4.07;;
422;SDS011;198;48.752;9.180;2022-12-24T17:26:23;15.07;;;4.37;;
422;SDS011;198;48.752;9.180;2022-12-24T17:28:53;13.83;;;3.43;;
422;SDS011;198;48.752;9.180;2022-12-24T17:31:19;7.60;;;3.70;;
422;SDS011;198;48.752;9.180;2022-12-24T17:33:47;10.87;;;3.93;;
422;SDS011;198;48.752;9.180;2022-12-24T17:36:13;11.10;;;4.20;;
422;SDS011;198;48.752;9.180;2022-12-24T17:38:39;8.67;;;3.30;;
422;SDS011;198;48.752;9.180;2022-12-24T17:41:09;6.33;;;3.20;;
422;SDS011;198;48.752;9.180;2022-12-24T17:43:37;7.50;;;2.50;;
422;SDS011;198;48.752;9.180;2022-12-24T17:46:04;8.90;;;3.73;;
422;SDS011;198;48.752;9.180;2022-12-24T17:48:34;5.93;;;2.10;;
422;SDS011;198;48.752;9.180;2022-12-24T17:51:06;6.50;;;3.07;;
422;SDS011;198;48.752;9.180;2022-12-24T17:53:34;7.90;;;2.83;;
422;SDS011;198;48.752;9.180;2022-12-24T17:56:00;7.00;;;3.23;;